Time;durP1;ratioP1;P1;durP2;ratioP2;P2;SDS_P1;SDS_P2;PMS_P1;PMS_P2;Temp;Humidity;BMP_temperature;BMP_pressure;BME280_temperature;BME280_humidity;BME280_pressure;Samples;Min_cycle;Max_cycle;Signal;HPM_P1;HPM_P2
2022/12/27 00:00:12;;;;;;;5.55;1.70;;;3.60;99.90;;;;;;6285015;22;20405;-79
2022/12/27 00:02:38;;;;;;;9.13;2.17;;;3.60;99.90;;;;;;6259523;22;20015;-80
2022/12/27 00:05:05;;;;;;;5.38;1.80;;;3.60;99.90;;;;;;6260013;22;20117;-78
2022/12/27 00:07:31;;;;;;;5.85;2.22;;;3.60;99.90;;;;;;6257009;22;20015;-78
2022/12/27 00:10:26;;;;;;;6.55;1.42;;;3.60;99.90;;;;;;6260662;22;20011;-78
2022/12/27 00:12:52;;;;;;;4.95;1.70;;;2.20;99.90;;;;;;6252188;22;20037;-79
2022/12/27 00:15:19;;;;;;;6.50;2.10;;;3.50;99.90;;;;;;6284665;22;20017;-79
2022/12/27 00:17:44;;;;;;;7.35;1.98;;;3.50;99.90;;;;;;6259955;22;20011;-78
2022/12/27 00:20:13;;;;;;;10.43;1.70;;;3.50;99.90;;;;;;6284464;22;20023;-78
2022/12/27 00:22:39;;;;;;;8.93;1.83;;;3.60;99.90;;;;;;6231864;22;20015;-78
2022/12/27 00:25:08;;;;;;;8.70;2.95;;;4.00;99.90;;;;;;6258327;22;20198;-79
2022/12/27 00:27:37;;;;;;;6.82;1.92;;;3.50;99.90;;;;;;6236174;22;20041;-78
2022/12/27 00:30:05;;;;;;;8.55;2.00;;;4.20;99.90;;;;;;6259424;22;20039;-79
2022/12/27 00:32:39;;;;;;;9.98;2.22;;;3.50;99.90;;;;;;6284799;22;20045;-78
2022/12/27 00:35:08;;;;;;;7.38;2.13;;;3.50;99.90;;;;;;6236170;22;20019;-78
2022/12/27 00:37:34;;;;;;;7.50;2.50;;;5.20;99.90;;;;;;6258697;22;20063;-78
2022/12/27 00:40:00;;;;;;;6.15;1.85;;;3.70;99.90;;;;;;6259406;22;20011;-78
2022/12/27 00:42:25;;;;;;;6.07;1.55;;;3.00;99.90;;;;;;6282614;22;20218;-78
2022/12/27 00:44:51;;;;;;;5.03;1.55;;;3.70;99.90;;;;;;6259573;22;20046;-78
2022/12/27 00:47:17;;;;;;;9.00;1.83;;;3.70;99.90;;;;;;6234897;22;20167;-78
2022/12/27 00:49:42;;;;;;;6.28;1.67;;;3.70;99.90;;;;;;6208314;22;20049;-77
2022/12/27 00:52:08;;;;;;;8.70;2.50;;;3.60;99.90;;;;;;6208715;22;20642;-78
2022/12/27 00:54:34;;;;;;;7.57;1.52;;;3.70;99.90;;;;;;6207711;22;20019;-77
2022/12/27 00:57:57;;;;;;;8.70;1.80;;;3.70;99.90;;;;;;6257801;22;20041;-77
2022/12/27 01:00:23;;;;;;;5.85;2.00;;;3.80;99.90;;;;;;6247062;22;20094;-79
2022/12/27 01:02:51;;;;;;;6.55;1.70;;;3.90;99.90;;;;;;6258706;22;20083;-79
2022/12/27 01:05:17;;;;;;;6.15;2.15;;;4.30;99.90;;;;;;6260539;22;20070;-79
2022/12/27 01:08:03;;;;;;;4.60;1.58;;;3.80;99.90;;;;;;6235033;22;20229;-79
2022/12/27 01:10:29;;;;;;;13.05;2.22;;;3.80;99.90;;;;;;6236341;22;20108;-79
2022/12/27 01:13:11;;;;;;;7.75;1.63;;;4.00;99.90;;;;;;6260115;22;20206;-78
2022/12/27 01:15:59;;;;;;;8.48;2.30;;;5.40;99.90;;;;;;6260421;22;20294;-78
2022/12/27 01:18:43;;;;;;;10.02;1.83;;;4.20;99.90;;;;;;6283508;22;20068;-77
2022/12/27 01:21:39;;;;;;;8.10;1.77;;;4.10;99.90;;;;;;6259636;22;20022;-77
2022/12/27 01:24:45;;;;;;;;;;;;;;;;;;;;;
2022/12/27 01:27:38;;;;;;;8.38;2.22;;;4.20;99.90;;;;;;6269718;22;20015;-79
2022/12/27 01:30:42;;;;;;;7.95;2.50;;;4.50;99.90;;;;;;6256310;22;20011;-79
2022/12/27 01:33:41;;;;;;;;;;;;;;;;;;;;;
2022/12/27 01:36:21;;;;;;;8.55;1.90;;;4.70;99.90;;;;;;6284546;22;20290;-76
2022/12/27 01:38:48;;;;;;;6.88;2.10;;;4.20;99.90;;;;;;6259451;22;20011;-76
2022/12/27 01:44:57;;;;;;;7.97;1.67;;;4.40;99.90;;;;;;6285424;22;20019;-78
2022/12/27 01:47:35;;;;;;;11.75;2.00;;;4.50;99.90;;;;;;6283039;22;20019;-77
2022/12/27 01:50:13;;;;;;;9.45;2.03;;;4.40;99.90;;;;;;6258339;22;20019;-78
2022/12/27 01:53:03;;;;;;;8.43;2.08;;;4.50;99.90;;;;;;6295400;22;20084;-79
2022/12/27 01:55:57;;;;;;;8.85;2.17;;;4.40;99.90;;;;;;6259084;22;20029;-79
2022/12/27 02:02:28;;;;;;;;;;;;;;;;;;;;;
2022/12/27 02:04:55;;;;;;;7.20;1.70;;;4.30;99.90;;;;;;6285512;22;20356;-78
2022/12/27 02:07:33;;;;;;;5.10;2.22;;;4.50;99.90;;;;;;6259513;22;20015;-78
2022/12/27 02:10:01;;;;;;;5.75;1.48;;;4.70;99.90;;;;;;6258770;22;20097;-78
2022/12/27 02:12:27;;;;;;;3.75;1.33;;;4.50;99.90;;;;;;6286491;22;20039;-78
2022/12/27 02:14:53;;;;;;;6.15;1.33;;;4.60;99.90;;;;;;6236055;22;20285;-78
2022/12/27 02:17:22;;;;;;;12.25;2.22;;;4.40;99.90;;;;;;6260579;22;20014;-78
2022/12/27 02:19:57;;;;;;;9.98;1.95;;;5.40;99.90;;;;;;6283473;22;20027;-78
2022/12/27 02:25:35;;;;;;;;;;;4.60;99.90;;;;;;6286224;22;20012;-78
2022/12/27 02:28:24;;;;;;;4.85;1.35;;;4.60;99.90;;;;;;6261329;22;19907;-79
2022/12/27 02:30:55;;;;;;;9.48;1.88;;;4.70;99.90;;;;;;6285957;22;20007;-79
2022/12/27 02:33:27;;;;;;;6.22;1.50;;;5.50;99.90;;;;;;6261373;22;20007;-79
2022/12/27 02:36:02;;;;;;;7.30;1.85;;;4.70;99.90;;;;;;6286451;22;20034;-78
2022/12/27 02:38:31;;;;;;;13.10;2.40;;;4.70;99.90;;;;;;6287040;22;20014;-78
2022/12/27 02:59:09;;;;;;;6.95;1.92;;;4.60;99.90;;;;;;6285807;22;20073;-79
2022/12/27 03:05:14;;;;;;;6.93;1.67;;;4.40;99.90;;;;;;6287050;22;20030;-79
2022/12/27 03:07:39;;;;;;;8.00;2.28;;;4.50;99.90;;;;;;6287226;22;20007;-77
2022/12/27 03:15:59;;;;;;;10.32;2.33;;;4.40;99.90;;;;;;6286143;22;20030;-79
2022/12/27 03:18:36;;;;;;;8.27;2.05;;;4.30;99.90;;;;;;6286847;22;20066;-79
2022/12/27 03:26:39;;;;;;;9.45;1.90;;;4.40;99.90;;;;;;6265493;22;20186;-77
2022/12/27 03:35:11;;;;;;;11.85;1.98;;;4.50;99.90;;;;;;6286092;22;20030;-76
2022/12/27 03:43:09;;;;;;;6.38;1.90;;;5.10;99.90;;;;;;6284104;22;20011;-76
2022/12/27 03:43:28;;;;;;;9.18;2.10;;;4.40;99.90;;;;;;6286151;22;20077;-76
2022/12/27 03:48:51;;;;;;;8.13;1.90;;;4.40;99.90;;;;;;6283836;22;20046;-77
2022/12/27 03:51:20;;;;;;;7.90;1.90;;;4.50;99.90;;;;;;6285409;22;20071;-76
2022/12/27 03:53:47;;;;;;;6.15;1.38;;;4.40;99.90;;;;;;6260025;22;20201;-78
2022/12/27 03:56:13;;;;;;;5.82;1.70;;;4.50;99.90;;;;;;6284021;22;20171;-76
2022/12/27 03:58:39;;;;;;;5.32;1.58;;;4.40;99.90;;;;;;6285384;22;20018;-78
2022/12/27 04:01:04;;;;;;;6.93;1.67;;;4.50;99.90;;;;;;6195451;22;20269;-78
2022/12/27 04:03:30;;;;;;;6.50;2.15;;;4.40;99.90;;;;;;6258569;22;20045;-78
2022/12/27 04:05:58;;;;;;;10.48;1.85;;;4.40;99.90;;;;;;6233840;22;20015;-78
2022/12/27 04:36:28;;;;;;;8.02;1.95;;;4.10;99.90;;;;;;6263025;22;20188;-79
2022/12/27 04:38:54;;;;;;;6.75;1.45;;;4.10;99.90;;;;;;6233340;22;20305;-79
2022/12/27 04:55:13;;;;;;;5.95;1.90;;;4.30;99.90;;;;;;6285478;22;20022;-78
2022/12/27 04:57:39;;;;;;;9.80;2.83;;;4.30;99.90;;;;;;6283114;22;20025;-79
2022/12/27 05:02:50;;;;;;;8.35;1.52;;;4.30;99.90;;;;;;6264498;22;20593;-79
2022/12/27 05:14:54;;;;;;;7.38;1.75;;;4.20;99.90;;;;;;6252150;22;20193;-78
2022/12/27 05:17:20;;;;;;;8.93;2.20;;;5.80;99.90;;;;;;6260365;22;20007;-78
2022/12/27 05:19:46;;;;;;;8.20;1.50;;;4.00;99.90;;;;;;6235083;22;20023;-77
2022/12/27 05:27:40;;;;;;;7.47;1.98;;;3.90;99.90;;;;;;6266032;22;20380;-78
2022/12/27 05:30:06;;;;;;;9.55;1.85;;;4.60;99.90;;;;;;6262066;22;20011;-78
2022/12/27 05:32:34;;;;;;;11.52;2.00;;;3.70;99.90;;;;;;6235734;22;20124;-76
2022/12/27 05:34:59;;;;;;;11.70;2.88;;;3.70;99.90;;;;;;6236217;22;20019;-77
2022/12/27 05:37:26;;;;;;;12.95;2.35;;;3.60;99.90;;;;;;6235066;22;20214;-77
2022/12/27 05:39:52;;;;;;;13.20;3.05;;;3.70;99.90;;;;;;6261518;22;20304;-77
2022/12/27 05:42:17;;;;;;;8.82;2.05;;;5.50;99.90;;;;;;6234558;22;20228;-76
2022/12/27 05:44:59;;;;;;;9.38;2.70;;;3.70;99.90;;;;;;6262717;22;20007;-78
2022/12/27 05:47:25;;;;;;;7.60;1.70;;;3.60;99.90;;;;;;6210698;22;20007;-78
2022/12/27 05:50:13;;;;;;;9.38;1.90;;;5.40;99.90;;;;;;6235394;22;20039;-80
2022/12/27 05:52:39;;;;;;;6.63;1.85;;;3.50;99.90;;;;;;6235445;22;20071;-79
2022/12/27 05:55:08;;;;;;;8.07;1.77;;;3.50;99.90;;;;;;6261028;22;20025;-79
2022/12/27 05:57:33;;;;;;;7.38;1.77;;;3.70;99.90;;;;;;6284418;22;20372;-79
2022/12/27 06:00:04;;;;;;;8.60;2.40;;;3.50;99.90;;;;;;6259955;22;20011;-80
2022/12/27 06:03:03;;;;;;;11.27;2.28;;;3.60;99.90;;;;;;6286719;22;20015;-79
2022/12/27 06:05:52;;;;;;;9.65;2.33;;;2.60;99.90;;;;;;6285940;22;20007;-79
2022/12/27 06:09:02;;;;;;;;;;;;;;;;;;;;;
2022/12/27 06:12:02;;;;;;;6.65;1.70;;;3.80;99.90;;;;;;6283180;22;20303;-79
2022/12/27 06:14:35;;;;;;;10.18;2.63;;;3.50;99.90;;;;;;6254885;22;20019;-79
2022/12/27 06:17:06;;;;;;;9.13;2.00;;;3.40;99.90;;;;;;6260216;22;20082;-79
2022/12/27 06:19:35;;;;;;;10.43;2.08;;;3.40;99.90;;;;;;6287408;22;20078;-79
2022/12/27 06:22:04;;;;;;;9.27;2.20;;;3.50;99.90;;;;;;6260616;22;20046;-78
2022/12/27 06:27:16;;;;;;;6.47;1.80;;;2.40;99.90;;;;;;6240549;22;20019;-78
2022/12/27 06:29:42;;;;;;;12.93;2.58;;;;;;;;;;6259960;22;20019;-79
2022/12/27 06:33:34;;;;;;;6.13;1.73;;;3.30;99.90;;;;;;6259421;22;20019;-78
2022/12/27 06:35:57;;;;;;;7.82;2.47;;;3.10;99.90;;;;;;6148457;22;20084;-78
2022/12/27 06:38:23;;;;;;;9.95;2.33;;;;;;;;;;6235552;22;20197;-79
2022/12/27 06:40:52;;;;;;;8.57;1.98;;;3.20;99.90;;;;;;6260831;22;20397;-78
2022/12/27 06:43:21;;;;;;;10.35;2.10;;;3.00;99.90;;;;;;6258039;22;20015;-79
2022/12/27 06:46:11;;;;;;;4.03;1.83;;;3.20;99.90;;;;;;6233328;22;20033;-78
2022/12/27 06:48:40;;;;;;;9.85;1.95;;;3.30;99.90;;;;;;6282163;22;20019;-78
2022/12/27 06:51:40;;;;;;;11.60;2.40;;;3.20;99.90;;;;;;6205255;22;20019;-79
2022/12/27 06:57:57;;;;;;;9.57;2.10;;;4.40;99.90;;;;;;6157368;23;20069;-77
2022/12/27 07:00:23;;;;;;;5.72;1.95;;;3.00;99.90;;;;;;6116794;22;20017;-79
2022/12/27 07:02:49;;;;;;;11.82;2.20;;;3.20;99.90;;;;;;6210849;22;20042;-79
2022/12/27 07:05:14;;;;;;;19.73;2.05;;;4.30;99.90;;;;;;6234777;22;20332;-80
2022/12/27 07:07:40;;;;;;;15.95;2.58;;;3.70;99.90;;;;;;6210399;22;20007;-80
2022/12/27 07:10:06;;;;;;;13.02;2.50;;;2.90;99.90;;;;;;6286500;22;20076;-79
2022/12/27 07:12:32;;;;;;;7.20;2.55;;;3.00;99.90;;;;;;6261618;22;20011;-79
2022/12/27 07:14:57;;;;;;;9.27;3.00;;;2.90;99.90;;;;;;6210819;22;20011;-79
2022/12/27 07:17:23;;;;;;;13.32;2.83;;;2.90;99.90;;;;;;6236896;22;20015;-79
2022/12/27 07:19:49;;;;;;;8.93;2.83;;;2.90;99.90;;;;;;6287320;22;20458;-79
2022/12/27 07:22:15;;;;;;;8.25;2.72;;;2.90;99.90;;;;;;6235994;22;20050;-81
2022/12/27 07:24:40;;;;;;;8.18;2.20;;;2.80;99.90;;;;;;6287076;22;20007;-79
2022/12/27 07:27:39;;;;;;;10.73;3.33;;;3.80;99.90;;;;;;6237998;22;20038;-81
2022/12/27 07:30:04;;;;;;;9.45;2.28;;;2.80;99.90;;;;;;6286223;22;20071;-78
2022/12/27 07:32:33;;;;;;;7.72;1.85;;;2.80;99.90;;;;;;6262526;22;20018;-79
2022/12/27 07:34:59;;;;;;;7.57;3.15;;;3.00;99.90;;;;;;6236257;22;20267;-75
2022/12/27 07:37:27;;;;;;;7.30;2.83;;;4.90;99.90;;;;;;6236745;22;20056;-79
2022/12/27 07:39:52;;;;;;;6.70;2.70;;;3.10;99.90;;;;;;6235950;22;20019;-79
2022/12/27 07:42:18;;;;;;;12.07;2.20;;;3.00;99.90;;;;;;6209769;22;20070;-76
2022/12/27 07:44:44;;;;;;;13.13;2.40;;;3.90;99.90;;;;;;6285171;22;20053;-74
2022/12/27 07:47:09;;;;;;;8.15;2.22;;;3.00;99.90;;;;;;6284211;22;20088;-76
2022/12/27 07:49:35;;;;;;;7.30;2.88;;;3.20;99.90;;;;;;6235317;22;20018;-76
2022/12/27 07:52:01;;;;;;;14.45;2.25;;;3.30;99.90;;;;;;6285848;22;20011;-77
2022/12/27 07:54:26;;;;;;;11.85;2.53;;;3.20;99.90;;;;;;6236077;22;20019;-77
2022/12/27 07:56:52;;;;;;;8.15;2.78;;;4.10;99.90;;;;;;6260645;22;20011;-77
2022/12/27 07:59:18;;;;;;;10.27;2.03;;;3.50;99.90;;;;;;6284544;22;20015;-77
2022/12/27 08:08:50;;;;;;;10.20;2.65;;;5.10;99.90;;;;;;6124343;22;20072;-76
2022/12/27 08:11:34;;;;;;;5.65;1.90;;;3.90;99.90;;;;;;6283084;22;20035;-77
2022/12/27 08:14:00;;;;;;;12.48;3.13;;;4.60;99.90;;;;;;6256075;22;20015;-75
2022/12/27 08:16:26;;;;;;;10.73;2.53;;;3.40;99.90;;;;;;6259294;22;20007;-75
2022/12/27 08:18:52;;;;;;;11.23;2.67;;;3.60;99.90;;;;;;6257637;22;20018;-76
2022/12/27 08:21:18;;;;;;;10.75;2.30;;;3.60;99.90;;;;;;6285280;22;20019;-76
2022/12/27 08:23:47;;;;;;;11.75;2.22;;;3.70;99.90;;;;;;6283005;22;20011;-75
2022/12/27 08:26:15;;;;;;;9.68;2.40;;;3.60;99.90;;;;;;6258430;22;20007;-76
2022/12/27 08:28:51;;;;;;;12.07;3.65;;;3.50;99.90;;;;;;6234210;22;20197;-76
2022/12/27 08:31:19;;;;;;;15.30;2.20;;;5.00;99.90;;;;;;6259382;22;20068;-77
2022/12/27 08:33:49;;;;;;;8.40;2.60;;;3.50;99.90;;;;;;6258367;22;20301;-77
2022/12/27 08:36:15;;;;;;;11.95;2.47;;;3.50;99.90;;;;;;6257908;22;20015;-75
2022/12/27 08:38:53;;;;;;;10.35;2.25;;;3.80;99.90;;;;;;6233834;22;20057;-76
2022/12/27 08:41:20;;;;;;;11.18;2.60;;;5.20;99.90;;;;;;6260568;22;20011;-77
2022/12/27 08:43:46;;;;;;;13.75;3.92;;;3.70;99.90;;;;;;6285660;22;20070;-76
2022/12/27 08:46:14;;;;;;;6.38;2.40;;;5.70;99.90;;;;;;6283798;22;20014;-78
2022/12/27 08:48:40;;;;;;;8.02;2.70;;;5.00;99.90;;;;;;6282539;22;20014;-77
2022/12/27 08:51:07;;;;;;;9.88;2.50;;;5.20;99.90;;;;;;6281378;22;20043;-76
2022/12/27 08:53:33;;;;;;;13.27;3.15;;;3.90;99.90;;;;;;6257136;22;20412;-77
2022/12/27 08:55:59;;;;;;;16.55;2.80;;;3.80;99.90;;;;;;6285140;22;20007;-76
2022/12/27 08:58:25;;;;;;;16.80;3.28;;;4.60;99.90;;;;;;6234677;22;20007;-76
2022/12/27 09:01:35;;;;;;;;;;;;;;;;;;;;;
2022/12/27 09:08:05;;;;;;;11.95;2.50;;;4.40;99.90;;;;;;6169432;22;20072;-78
2022/12/27 09:10:31;;;;;;;11.77;2.80;;;4.20;99.90;;;;;;6260651;22;20011;-76
2022/12/27 09:12:57;;;;;;;8.35;2.50;;;4.00;99.90;;;;;;6260002;22;20011;-76
2022/12/27 09:15:36;;;;;;;7.80;2.60;;;3.40;99.90;;;;;;6259851;22;20049;-77
2022/12/27 09:18:18;;;;;;;;;;;;;;;;;;;;;
2022/12/27 09:20:44;;;;;;;9.63;2.83;;;4.80;99.90;;;;;;6261481;22;20038;-76
2022/12/27 09:23:10;;;;;;;10.18;2.88;;;4.20;99.90;;;;;;6259089;22;20027;-75
2022/12/27 09:25:35;;;;;;;8.98;2.40;;;4.60;99.90;;;;;;6286064;22;20007;-75
2022/12/27 09:28:01;;;;;;;13.23;2.53;;;4.70;99.90;;;;;;6260024;22;20022;-76
2022/12/27 09:30:28;;;;;;;8.45;2.47;;;5.10;99.90;;;;;;6260648;22;20046;-76
2022/12/27 09:32:54;;;;;;;7.68;2.40;;;5.60;99.90;;;;;;6260543;22;20070;-76
2022/12/27 09:35:20;;;;;;;6.05;2.17;;;5.80;99.90;;;;;;6209539;22;20019;-75
2022/12/27 09:37:45;;;;;;;10.52;2.67;;;6.00;99.90;;;;;;6260260;22;20018;-75
2022/12/27 09:40:18;;;;;;;11.00;2.63;;;6.10;99.90;;;;;;6259403;22;20081;-75
2022/12/27 09:43:04;;;;;;;9.93;2.83;;;6.20;99.90;;;;;;6285328;22;20070;-75
2022/12/27 09:45:41;;;;;;;13.15;2.55;;;6.60;99.90;;;;;;6259865;22;20015;-77
2022/12/27 09:48:14;;;;;;;10.82;2.13;;;6.50;99.90;;;;;;6259857;22;20007;-76
2022/12/27 09:51:21;;;;;;;8.88;2.25;;;6.70;99.90;;;;;;6285809;22;20046;-76
2022/12/27 09:58:27;;;;;;;9.57;2.10;;;7.10;99.90;;;;;;6214951;23;20047;-75
2022/12/27 10:00:53;;;;;;;5.43;1.90;;;6.80;99.90;;;;;;6218010;23;20290;-76
2022/12/27 10:03:23;;;;;;;10.80;2.58;;;7.00;99.90;;;;;;6217743;22;20011;-77
2022/12/27 10:05:59;;;;;;;6.82;2.03;;;7.10;99.90;;;;;;6260369;22;20201;-74
2022/12/27 10:08:51;;;;;;;6.22;1.83;;;7.20;99.90;;;;;;6285282;22;20070;-74
2022/12/27 10:11:51;;;;;;;7.10;1.90;;;7.30;99.90;;;;;;6260035;22;20019;-76
2022/12/27 10:14:33;;;;;;;8.77;1.90;;;7.10;99.90;;;;;;6287213;22;20027;-75
2022/12/27 10:17:05;;;;;;;7.32;2.28;;;6.90;99.90;;;;;;6261760;22;20011;-74
2022/12/27 10:19:31;;;;;;;7.55;1.88;;;7.10;99.90;;;;;;6287501;22;20023;-76
2022/12/27 10:22:22;;;;;;;6.95;2.20;;;7.40;99.90;;;;;;6287607;22;20022;-74
2022/12/27 10:24:54;;;;;;;7.05;1.80;;;7.40;99.90;;;;;;6287801;22;20236;-75
2022/12/27 10:27:23;;;;;;;10.13;2.20;;;7.80;99.90;;;;;;6261113;22;20015;-75
2022/12/27 10:29:57;;;;;;;6.85;2.38;;;7.70;99.90;;;;;;6287593;22;20078;-75
2022/12/27 10:32:26;;;;;;;8.07;2.45;;;7.90;99.90;;;;;;6261357;22;20248;-74
2022/12/27 10:35:00;;;;;;;7.68;2.53;;;7.90;99.90;;;;;;6261459;22;20015;-74
2022/12/27 10:37:27;;;;;;;4.22;1.90;;;8.00;99.90;;;;;;6261450;22;20019;-76
2022/12/27 10:40:13;;;;;;;6.22;2.15;;;8.10;99.90;;;;;;6286566;22;20018;-75
2022/12/27 10:42:44;;;;;;;10.60;3.30;;;8.10;99.90;;;;;;6286748;22;20007;-76
2022/12/27 10:45:33;;;;;;;6.13;2.15;;;8.30;99.90;;;;;;6261684;22;20010;-76
2022/12/27 10:48:23;;;;;;;7.45;2.10;;;8.00;99.90;;;;;;6286924;22;20321;-75
2022/12/27 10:51:08;;;;;;;5.40;1.80;;;7.80;99.90;;;;;;6261417;22;20059;-75
2022/12/27 10:53:59;;;;;;;7.28;2.35;;;8.10;99.90;;;;;;6261020;22;20212;-75
2022/12/27 10:56:27;;;;;;;7.72;1.90;;;8.30;99.90;;;;;;6261424;22;20325;-75
2022/12/27 10:59:07;;;;;;;9.35;2.08;;;8.30;99.90;;;;;;6261764;22;20057;-75
2022/12/27 11:01:33;;;;;;;10.85;2.50;;;7.60;99.90;;;;;;6260591;22;20011;-75
2022/12/27 11:04:19;;;;;;;7.45;2.22;;;7.20;99.90;;;;;;6287102;22;20071;-74
2022/12/27 11:06:58;;;;;;;12.63;2.25;;;7.00;99.90;;;;;;6261768;22;20026;-76
2022/12/27 11:09:32;;;;;;;12.52;2.30;;;6.70;99.90;;;;;;6286480;22;20007;-76
2022/12/27 11:12:12;;;;;;;25.95;3.80;;;7.30;99.90;;;;;;6287433;22;20255;-74
2022/12/27 11:14:39;;;;;;;6.70;2.22;;;8.20;99.90;;;;;;6261601;22;20082;-77
2022/12/27 11:17:12;;;;;;;6.35;1.90;;;8.60;99.90;;;;;;6260392;22;20019;-76
2022/12/27 11:19:45;;;;;;;6.05;1.73;;;9.30;99.90;;;;;;6259847;22;20027;-76
2022/12/27 11:22:12;;;;;;;8.10;1.80;;;9.10;99.90;;;;;;6285194;22;20043;-77
2022/12/27 11:24:48;;;;;;;9.00;2.85;;;8.70;99.90;;;;;;6260503;22;20063;-78
2022/12/27 11:27:27;;;;;;;8.95;2.35;;;8.90;99.90;;;;;;6259651;22;20007;-76
2022/12/27 11:29:56;;;;;;;9.52;2.38;;;8.60;99.90;;;;;;6260043;22;20011;-76
2022/12/27 11:32:26;;;;;;;5.68;1.90;;;9.00;99.90;;;;;;6283915;22;20011;-76
2022/12/27 11:34:54;;;;;;;6.38;2.25;;;8.50;99.90;;;;;;6259990;22;20290;-76
2022/12/27 11:37:24;;;;;;;10.38;1.88;;;8.10;99.90;;;;;;6258769;22;20230;-76
2022/12/27 11:40:11;;;;;;;12.32;2.40;;;7.70;99.90;;;;;;6259507;22;20019;-75
2022/12/27 11:42:44;;;;;;;7.97;2.28;;;7.30;99.90;;;;;;6285186;22;20014;-75
2022/12/27 11:45:48;;;;;;;6.40;1.92;;;7.10;99.90;;;;;;6259793;22;20221;-75
2022/12/27 11:48:24;;;;;;;6.65;1.95;;;6.80;99.90;;;;;;6108178;23;20018;-76
2022/12/27 11:51:37;;;;;;;;;;;;;;;;;;;;;
2022/12/27 12:01:15;;;;;;;11.27;2.47;;;8.20;99.90;;;;;;6232705;23;20062;-76
2022/12/27 12:03:40;;;;;;;12.20;2.67;;;9.00;99.90;;;;;;6197020;23;20020;-74
2022/12/27 12:14:00;;;;;;;7.85;2.22;;;8.70;99.90;;;;;;6247180;23;20027;-76
2022/12/27 12:16:40;;;;;;;4.20;1.55;;;8.30;99.90;;;;;;6221548;23;20007;-75
2022/12/27 12:19:20;;;;;;;10.35;1.85;;;7.70;99.90;;;;;;6197294;22;20346;-76
2022/12/27 12:22:05;;;;;;;9.95;2.58;;;7.90;99.90;;;;;;6194116;23;20083;-75
2022/12/27 12:25:13;;;;;;;6.95;2.00;;;7.40;99.90;;;;;;6166617;23;20268;-75
2022/12/27 12:28:03;;;;;;;4.82;2.05;;;7.30;99.90;;;;;;6166776;23;20234;-75
2022/12/27 12:30:54;;;;;;;8.18;1.95;;;7.20;99.90;;;;;;6166880;23;20013;-76
2022/12/27 12:33:45;;;;;;;5.10;1.80;;;7.20;99.90;;;;;;6228039;22;20012;-74
2022/12/27 12:36:49;;;;;;;10.15;2.38;;;7.00;99.90;;;;;;6253257;22;20037;-75
2022/12/27 12:39:42;;;;;;;;;;;7.00;99.90;;;;;;6228418;22;20072;-75
2022/12/27 12:42:25;;;;;;;7.60;2.10;;;6.90;99.90;;;;;;6161825;23;19960;-75
2022/12/27 12:45:15;;;;;;;8.60;1.90;;;6.90;99.90;;;;;;6162483;23;20009;-74
2022/12/27 12:48:04;;;;;;;9.85;2.08;;;6.90;99.90;;;;;;6162120;23;20009;-75
2022/12/27 12:50:42;;;;;;;6.28;1.65;;;6.90;99.90;;;;;;6094899;23;20009;-75
2022/12/27 12:53:28;;;;;;;10.07;1.85;;;6.90;99.90;;;;;;6162256;23;20071;-74
2022/12/27 12:56:25;;;;;;;11.23;1.95;;;6.90;99.90;;;;;;6161236;23;20019;-75
2022/12/27 12:59:12;;;;;;;8.43;2.03;;;6.80;99.90;;;;;;6161326;23;20009;-75
2022/12/27 13:02:05;;;;;;;8.05;2.08;;;6.80;99.90;;;;;;6162180;23;20020;-75
2022/12/27 13:04:59;;;;;;;7.95;2.17;;;6.80;99.90;;;;;;6161974;23;20199;-76
2022/12/27 13:07:49;;;;;;;7.70;2.10;;;6.80;99.90;;;;;;6161022;23;20043;-76
2022/12/27 13:10:33;;;;;;;7.30;2.15;;;6.70;99.90;;;;;;6137233;23;20091;-75
2022/12/27 13:13:30;;;;;;;9.73;3.17;;;6.60;99.90;;;;;;6176804;22;20054;-75
2022/12/27 13:16:01;;;;;;;5.95;2.00;;;6.60;99.90;;;;;;6253723;22;20042;-75
2022/12/27 13:18:47;;;;;;;7.65;2.45;;;6.60;99.90;;;;;;6228284;22;20089;-73
2022/12/27 13:25:06;;;;;;;6.03;1.90;;;6.60;99.90;;;;;;6236713;22;20241;-76
2022/12/27 13:27:53;;;;;;;8.02;2.15;;;6.60;99.90;;;;;;6214497;22;20194;-75
2022/12/27 13:30:26;;;;;;;7.72;1.92;;;6.60;99.90;;;;;;6228306;22;20310;-74
2022/12/27 13:33:26;;;;;;;7.43;1.80;;;6.50;99.90;;;;;;6228872;22;20012;-75
2022/12/27 13:35:58;;;;;;;6.03;1.92;;;6.50;99.90;;;;;;6228654;22;20012;-75
2022/12/27 13:38:51;;;;;;;8.57;2.15;;;6.40;99.90;;;;;;6253738;22;20026;-76
2022/12/27 13:41:23;;;;;;;8.48;2.10;;;6.40;99.90;;;;;;6227179;22;20012;-75
2022/12/27 13:44:52;;;;;;;6.38;1.67;;;6.30;99.90;;;;;;6253488;22;20053;-74
2022/12/27 13:48:01;;;;;;;7.82;2.10;;;6.20;99.90;;;;;;6080191;23;20021;-74
2022/12/27 13:50:56;;;;;;;7.97;2.10;;;6.40;99.90;;;;;;6080228;23;20077;-75
2022/12/27 13:53:43;;;;;;;6.55;2.28;;;6.00;99.90;;;;;;6229340;22;20062;-73
2022/12/27 13:56:17;;;;;;;8.90;2.30;;;6.10;99.90;;;;;;6230077;22;20012;-74
2022/12/27 13:59:08;;;;;;;10.18;2.47;;;6.00;99.90;;;;;;6230514;22;20017;-77
2022/12/27 14:01:58;;;;;;;11.32;3.00;;;5.90;99.90;;;;;;6254676;22;20049;-77
2022/12/27 14:04:38;;;;;;;9.95;2.60;;;6.00;99.90;;;;;;6229257;22;20223;-74
2022/12/27 14:07:16;;;;;;;12.05;3.67;;;5.90;99.90;;;;;;6255305;22;20053;-75
2022/12/27 14:10:15;;;;;;;8.65;3.53;;;5.90;99.90;;;;;;6255014;22;20014;-75
2022/12/27 14:12:41;;;;;;;9.70;2.85;;;5.90;99.90;;;;;;6255054;22;20103;-75
2022/12/27 14:15:14;;;;;;;10.93;3.22;;;5.90;99.90;;;;;;6254465;22;20321;-77
2022/12/27 14:17:43;;;;;;;12.13;2.75;;;5.90;99.90;;;;;;6254379;22;20049;-75
2022/12/27 14:20:28;;;;;;;10.07;2.63;;;5.90;99.90;;;;;;6264141;22;20076;-74
2022/12/27 14:23:03;;;;;;;;;;;6.00;99.90;;;;;;6259836;22;20015;-76
2022/12/27 14:26:08;;;;;;;11.55;3.70;;;6.10;99.90;;;;;;6313088;22;20198;-75
2022/12/27 14:29:21;;;;;;;9.73;2.70;;;5.90;99.90;;;;;;6228035;22;20011;-76
2022/12/27 14:31:56;;;;;;;12.05;3.40;;;6.00;99.90;;;;;;6192856;22;20014;-77
2022/12/27 14:34:53;;;;;;;10.05;3.05;;;6.00;99.90;;;;;;6259803;22;20017;-76
2022/12/27 14:37:51;;;;;;;11.18;3.28;;;6.00;99.90;;;;;;6285636;22;20014;-77
2022/12/27 14:41:03;;;;;;;12.10;3.38;;;6.00;99.90;;;;;;6285265;22;20039;-76
2022/12/27 14:43:43;;;;;;;9.55;3.50;;;6.00;99.90;;;;;;6216627;22;20239;-75
2022/12/27 14:46:39;;;;;;;9.95;4.00;;;6.00;99.90;;;;;;6260435;22;20007;-75
2022/12/27 14:49:24;;;;;;;8.82;3.50;;;5.90;99.90;;;;;;6260302;22;20325;-75
2022/12/27 14:52:26;;;;;;;12.60;3.80;;;6.00;99.90;;;;;;6260211;22;20037;-77
2022/12/27 14:55:23;;;;;;;9.85;3.17;;;5.90;99.90;;;;;;6285708;22;20018;-77
2022/12/27 14:57:51;;;;;;;16.20;4.07;;;5.90;99.90;;;;;;6259728;22;20011;-75
2022/12/27 15:00:23;;;;;;;10.27;4.00;;;6.00;99.90;;;;;;6285277;22;20417;-75
2022/12/27 15:02:57;;;;;;;10.30;4.82;;;6.00;99.90;;;;;;6260034;22;20010;-74
2022/12/27 15:06:04;;;;;;;9.93;4.07;;;5.90;99.90;;;;;;6285638;22;20201;-76
2022/12/27 15:08:55;;;;;;;6.63;3.85;;;5.90;99.90;;;;;;6285255;22;20344;-75
2022/12/27 15:11:36;;;;;;;7.88;4.85;;;5.80;99.90;;;;;;6285375;22;20015;-76
2022/12/27 15:14:24;;;;;;;11.07;4.78;;;5.80;99.90;;;;;;6260145;22;20022;-75
2022/12/27 15:17:07;;;;;;;8.88;5.10;;;5.90;99.90;;;;;;6285928;22;20037;-76
2022/12/27 15:20:16;;;;;;;11.90;6.25;;;5.80;99.90;;;;;;6259421;22;20074;-74
2022/12/27 15:22:51;;;;;;;11.57;6.18;;;5.70;99.90;;;;;;6285088;22;20038;-77
2022/12/27 15:25:29;;;;;;;14.90;6.38;;;5.70;99.90;;;;;;6285421;22;20309;-77
2022/12/27 15:28:41;;;;;;;16.40;6.65;;;5.70;99.90;;;;;;6285341;22;20466;-75
2022/12/27 15:31:28;;;;;;;14.15;7.05;;;5.70;99.90;;;;;;6285886;22;20057;-76
2022/12/27 15:34:21;;;;;;;13.68;6.43;;;4.70;99.90;;;;;;6262844;22;20008;-75
2022/12/27 15:36:49;;;;;;;18.50;8.57;;;5.70;99.90;;;;;;6261496;22;20387;-76
2022/12/27 15:39:33;;;;;;;16.30;8.60;;;5.70;99.90;;;;;;6286863;22;20007;-77
2022/12/27 15:42:38;;;;;;;15.57;8.75;;;5.60;99.90;;;;;;6289920;22;20033;-76
2022/12/27 15:45:22;;;;;;;13.70;8.82;;;5.60;99.90;;;;;;6261197;22;20007;-76
2022/12/27 15:48:08;;;;;;;16.67;9.60;;;5.70;99.90;;;;;;6260959;22;20011;-76
2022/12/27 15:50:43;;;;;;;13.82;10.38;;;5.60;99.90;;;;;;6285717;22;20011;-76
2022/12/27 15:53:15;;;;;;;15.68;10.77;;;5.60;99.90;;;;;;6261044;22;20022;-77
2022/12/27 15:56:08;;;;;;;21.00;11.13;;;5.70;99.90;;;;;;6261054;22;20557;-76
2022/12/27 15:58:53;;;;;;;;;;;;;;;;;;;;;
2022/12/27 16:01:26;;;;;;;16.45;10.52;;;5.70;99.90;;;;;;6242261;22;20011;-76
2022/12/27 16:04:07;;;;;;;16.40;10.60;;;5.70;99.90;;;;;;6286838;22;20034;-76
2022/12/27 16:10:03;;;;;;;19.73;10.27;;;5.80;99.90;;;;;;6143481;23;20076;-76
2022/12/27 16:16:25;;;;;;;17.67;11.55;;;5.90;99.90;;;;;;6154141;22;20038;-77
2022/12/27 16:19:38;;;;;;;18.10;11.45;;;5.90;99.90;;;;;;6206953;22;20043;-74
2022/12/27 16:22:34;;;;;;;19.30;10.93;;;5.90;99.90;;;;;;6178796;22;20025;-77
2022/12/27 16:25:22;;;;;;;18.67;12.80;;;5.90;99.90;;;;;;6260964;22;20015;-78
2022/12/27 16:28:14;;;;;;;25.00;14.75;;;5.80;99.90;;;;;;6286521;22;20007;-76
2022/12/27 16:30:40;;;;;;;18.20;11.68;;;5.90;99.90;;;;;;6279803;22;20018;-76
2022/12/27 16:33:24;;;;;;;16.60;11.13;;;5.70;99.90;;;;;;6256515;22;20014;-77
2022/12/27 16:36:12;;;;;;;18.27;12.23;;;5.80;99.90;;;;;;6260851;22;20292;-77
2022/12/27 16:38:53;;;;;;;17.35;11.95;;;5.70;99.90;;;;;;6285721;22;20073;-77